Time;durP1;ratioP1;P1;durP2;ratioP2;P2;SDS_P1;SDS_P2;PMS_P1;PMS_P2;Temp;Humidity;BMP_temperature;BMP_pressure;BME280_temperature;BME280_humidity;BME280_pressure;Samples;Min_cycle;Max_cycle;Signal;HPM_P1;HPM_P2
2021/12/07 00:02:03;;;;;;;;;12.00;11.25;;;;;21.92;47.25;100429.50;5089309;27;45302;-71
2021/12/07 00:04:28;;;;;;;;;10.75;10.25;;;;;21.89;47.15;100445.56;5089018;27;45462;-72
2021/12/07 00:06:54;;;;;;;;;11.75;11.00;;;;;21.90;46.84;100458.81;5105258;27;70390;-72
2021/12/07 00:09:21;;;;;;;;;13.50;12.25;;;;;21.90;46.69;100460.63;5105845;27;46543;-72
2021/12/07 00:11:48;;;;;;;;;10.25;10.00;;;;;21.87;46.63;100448.28;5106067;27;45421;-72
2021/12/07 00:14:15;;;;;;;;;13.25;9.25;;;;;21.88;47.05;100452.69;5089028;27;45297;-71
2021/12/07 00:16:41;;;;;;;;;14.75;13.00;;;;;21.87;46.71;100456.25;5089174;27;45495;-72
2021/12/07 00:19:07;;;;;;;;;13.50;11.25;;;;;21.87;46.96;100453.59;5073296;27;46305;-72
2021/12/07 00:21:32;;;;;;;;;7.00;7.00;;;;;21.86;46.57;100457.19;5105166;27;60683;-72
2021/12/07 00:23:57;;;;;;;;;15.50;12.50;;;;;21.85;46.87;100442.19;5105000;27;63529;-73
2021/12/07 00:26:23;;;;;;;;;10.25;10.00;;;;;21.85;46.85;100444.84;5104759;27;65753;-72
2021/12/07 00:28:50;;;;;;;;;14.25;12.75;;;;;21.84;46.78;100443.13;5088206;27;47628;-72
2021/12/07 00:31:25;;;;;;;;;15.75;12.50;;;;;21.81;46.88;100442.41;5123924;27;45445;-72
2021/12/07 00:34:06;;;;;;;;;14.00;11.75;;;;;21.82;46.88;100457.41;5074227;27;45451;-72
2021/12/07 00:36:32;;;;;;;;;19.50;18.00;;;;;21.81;46.63;100458.34;5086146;27;46271;-72
2021/12/07 00:38:57;;;;;;;;;16.75;15.25;;;;;21.80;46.49;100452.13;5067809;27;47034;-72
2021/12/07 00:41:22;;;;;;;;;16.25;13.00;;;;;21.81;46.66;100459.19;5083975;27;62498;-72
2021/12/07 00:43:48;;;;;;;;;18.50;14.50;;;;;21.81;46.77;100468.97;5121296;27;51837;-72
2021/12/07 00:46:16;;;;;;;;;16.00;14.50;;;;;21.81;46.52;100477.78;5073789;27;45432;-70
2021/12/07 00:48:41;;;;;;;;;14.00;13.00;;;;;21.80;46.62;100464.56;5107528;27;46328;-71
2021/12/07 00:51:07;;;;;;;;;19.50;16.50;;;;;21.79;46.39;100468.13;5105422;27;45295;-72
2021/12/07 00:53:32;;;;;;;;;16.50;16.50;;;;;21.78;46.19;100463.75;5123655;27;45537;-72
2021/12/07 00:55:59;;;;;;;;;17.25;17.25;;;;;21.76;46.47;100469.13;5124287;27;67303;-71
2021/12/07 00:58:25;;;;;;;;;17.25;16.50;;;;;21.76;46.26;100465.63;5116863;27;45583;-71
2021/12/07 01:01:00;;;;;;;;;19.75;17.50;;;;;21.76;46.18;100462.97;5123496;27;45414;-72
2021/12/07 01:03:25;;;;;;;;;19.00;16.25;;;;;21.75;46.07;100475.38;5105167;27;45235;-72
2021/12/07 01:06:01;;;;;;;;;19.00;18.25;;;;;21.74;46.08;100481.63;5104975;27;45342;-73
2021/12/07 01:08:52;;;;;;;;;18.25;16.25;;;;;21.72;46.68;100465.75;5089214;27;47256;-74
2021/12/07 01:24:58;;;;;;;;;21.00;17.50;;;;;21.68;46.26;100469.44;5107909;27;45441;-73
2021/12/07 01:27:24;;;;;;;;;18.00;16.50;;;;;21.69;46.13;100465.00;5104443;27;45537;-73
2021/12/07 01:29:59;;;;;;;;;15.75;14.25;;;;;21.69;45.75;100468.53;5067236;27;47105;-73
2021/12/07 01:32:41;;;;;;;;;18.50;16.25;;;;;21.68;45.71;100457.97;5089586;27;45453;-72
2021/12/07 01:37:58;;;;;;;;;19.75;14.25;;;;;21.67;46.18;100467.72;5111435;27;45486;-74
2021/12/07 01:49:56;;;;;;;;;18.50;15.75;;;;;21.67;45.55;100491.63;5105166;27;45370;-72
2021/12/07 02:01:06;;;;;;;;;19.00;17.75;;;;;21.65;45.96;100476.69;5122035;27;45993;-72
2021/12/07 02:03:31;;;;;;;;;22.75;19.75;;;;;21.64;45.54;100485.59;5087044;27;45457;-72
2021/12/07 02:05:57;;;;;;;;;24.75;20.25;;;;;21.63;45.85;100486.50;5067670;27;47652;-72
2021/12/07 02:08:22;;;;;;;;;27.25;19.50;;;;;21.63;45.41;100484.72;5083670;27;45449;-72
2021/12/07 02:10:48;;;;;;;;;20.50;17.00;;;;;21.63;45.84;100483.84;5098041;27;45525;-73
2021/12/07 02:15:54;;;;;;;;;23.25;19.50;;;;;21.62;45.79;100490.06;5087600;27;45352;-72
2021/12/07 02:18:19;;;;;;;;;22.00;21.25;;;;;21.61;45.56;100480.38;5065696;27;68088;-72
2021/12/07 02:20:47;;;;;;;;;25.25;21.50;;;;;21.59;45.43;100485.75;5081812;27;67587;-73
2021/12/07 02:23:13;;;;;;;;;22.75;20.75;;;;;21.60;45.44;100498.09;5083483;27;45417;-73
2021/12/07 02:25:38;;;;;;;;;22.00;20.50;;;;;21.60;45.96;100497.25;5083395;27;45421;-72
2021/12/07 02:28:11;;;;;;;;;18.75;18.00;;;;;21.60;45.52;100494.59;5065601;27;58327;-72
2021/12/07 02:30:36;;;;;;;;;23.50;19.50;;;;;21.60;45.57;100500.75;5087315;27;45619;-72
2021/12/07 02:33:02;;;;;;;;;27.75;19.75;;;;;21.59;45.35;100509.66;5121576;27;50788;-72
2021/12/07 02:35:28;;;;;;;;;23.50;18.25;;;;;21.60;45.36;100507.88;5082224;27;45580;-73
2021/12/07 02:37:54;;;;;;;;;20.25;18.50;;;;;21.59;45.68;100504.34;5119817;27;45603;-72
2021/12/07 02:40:19;;;;;;;;;21.75;19.50;;;;;21.59;45.79;100504.34;5083023;27;45338;-73
2021/12/07 02:42:45;;;;;;;;;19.50;19.50;;;;;21.58;45.68;100507.06;5082756;27;45366;-73
2021/12/07 02:45:10;;;;;;;;;19.25;18.00;;;;;21.58;45.70;100499.97;5103569;27;45407;-73
2021/12/07 02:47:36;;;;;;;;;18.25;15.50;;;;;21.58;45.79;100483.16;5083051;27;45414;-73
2021/12/07 02:50:02;;;;;;;;;17.75;16.50;;;;;21.58;45.46;100499.09;5082600;27;66872;-73
2021/12/07 02:52:28;;;;;;;;;19.50;17.75;;;;;21.58;45.21;100496.44;5083105;27;45316;-73
2021/12/07 02:54:53;;;;;;;;;17.25;16.50;;;;;21.58;45.65;100496.44;5100421;27;45248;-73
2021/12/07 02:57:23;;;;;;;;;21.25;16.75;;;;;21.56;45.26;100493.88;5103043;27;45251;-73
2021/12/07 02:59:57;;;;;;;;;17.75;14.00;;;;;21.56;45.39;100480.59;5069031;27;48307;-73
2021/12/07 03:02:23;;;;;;;;;20.00;18.25;;;;;21.55;45.32;100473.56;5084088;27;45465;-73
2021/12/07 03:05:03;;;;;;;;;15.50;14.50;;;;;21.55;45.45;100492.13;5103309;27;45441;-73
2021/12/07 03:26:33;;;;;;;;;17.75;16.25;;;;;21.50;45.52;100503.84;5095873;27;45415;-73
2021/12/07 03:29:00;;;;;;;;;18.50;16.75;;;;;21.50;45.48;100511.81;5085567;27;45272;-73
2021/12/07 03:31:26;;;;;;;;;21.25;15.50;;;;;21.50;45.57;100514.47;5068997;27;47391;-73
2021/12/07 03:33:54;;;;;;;;;21.00;17.75;;;;;21.49;45.28;100513.63;5082313;27;45467;-73
2021/12/07 03:36:19;;;;;;;;;17.50;16.25;;;;;21.51;45.22;100518.84;5065478;27;45490;-73
2021/12/07 03:38:45;;;;;;;;;19.00;15.25;;;;;21.49;45.44;100515.41;5064460;27;67288;-73
2021/12/07 03:41:10;;;;;;;;;17.00;15.75;;;;;21.50;45.84;100527.75;5065208;27;45410;-73
2021/12/07 03:43:36;;;;;;;;;19.75;16.00;;;;;21.47;45.49;100520.78;5061660;28;45467;-73
2021/12/07 03:46:01;;;;;;;;;16.00;15.25;;;;;21.47;45.44;100510.16;5061901;28;45266;-73
2021/12/07 03:48:27;;;;;;;;;19.50;15.00;;;;;21.48;45.13;100503.06;5061887;27;62818;-73
2021/12/07 03:50:52;;;;;;;;;17.50;15.75;;;;;21.49;45.45;100494.16;5065092;27;47042;-73
2021/12/07 03:53:18;;;;;;;;;16.75;15.75;;;;;21.48;45.19;100505.72;5065067;27;45251;-73
2021/12/07 03:55:43;;;;;;;;;18.75;14.50;;;;;21.45;45.42;100504.03;5081704;27;54502;-73
2021/12/07 03:58:08;;;;;;;;;17.00;14.75;;;;;21.47;44.86;100509.31;5080917;27;67659;-73
2021/12/07 04:00:35;;;;;;;;;22.75;16.25;;;;;21.47;45.08;100506.66;5082002;27;46181;-73
2021/12/07 04:03:06;;;;;;;;;16.25;13.75;;;;;21.43;44.93;100498.78;5064937;27;45404;-73
2021/12/07 04:05:32;;;;;;;;;16.00;15.00;;;;;21.45;45.42;100491.59;5066779;27;45314;-74
2021/12/07 04:07:57;;;;;;;;;16.75;14.00;;;;;21.42;44.92;100483.78;5064185;27;64662;-74
2021/12/07 04:10:25;;;;;;;;;18.00;15.00;;;;;21.45;45.27;100496.91;5080963;27;72784;-73
2021/12/07 04:12:50;;;;;;;;;13.00;12.75;;;;;21.44;44.95;100487.22;5081384;27;45209;-74
2021/12/07 04:15:16;;;;;;;;;14.25;13.25;;;;;21.44;44.87;100494.34;5055397;27;61009;-73
2021/12/07 04:17:42;;;;;;;;;17.25;12.25;;;;;21.44;45.11;100503.16;5064779;27;45440;-74
2021/12/07 04:20:09;;;;;;;;;15.25;12.75;;;;;21.43;44.94;100506.75;5081537;27;47243;-73
2021/12/07 04:22:34;;;;;;;;;16.75;14.50;;;;;21.41;44.73;100497.97;5048990;27;46203;-73
2021/12/07 04:24:59;;;;;;;;;18.75;16.00;;;;;21.40;45.24;100503.34;5068454;27;45624;-73
2021/12/07 04:27:25;;;;;;;;;15.25;12.25;;;;;21.40;45.21;100492.75;5068018;27;45761;-73
2021/12/07 04:29:50;;;;;;;;;15.50;14.75;;;;;21.39;45.28;100483.03;5084544;27;66647;-73
2021/12/07 04:32:16;;;;;;;;;16.75;13.00;;;;;21.39;44.87;100498.97;5067082;27;69639;-74
2021/12/07 04:34:41;;;;;;;;;15.50;14.50;;;;;21.38;45.28;100500.78;5084981;27;51200;-74
2021/12/07 04:37:09;;;;;;;;;16.25;13.75;;;;;21.38;45.15;100492.81;5067103;27;69008;-73
2021/12/07 04:39:35;;;;;;;;;15.25;14.00;;;;;21.38;44.83;100500.78;5085753;27;45263;-74
2021/12/07 04:42:00;;;;;;;;;14.75;13.25;;;;;21.37;44.84;100496.38;5084485;27;45390;-73
2021/12/07 04:44:26;;;;;;;;;13.75;12.75;;;;;21.38;44.88;100489.28;5067961;27;45190;-74
2021/12/07 05:00:10;;;;;;;;;15.50;14.25;;;;;21.35;44.83;100484.94;5073019;27;45322;-74
2021/12/07 05:02:38;;;;;;;;;13.50;12.00;;;;;21.35;44.95;100487.59;5067920;27;45246;-74
2021/12/07 05:05:04;;;;;;;;;15.75;14.50;;;;;21.35;44.68;100490.25;5085260;27;45235;-74
2021/12/07 05:07:36;;;;;;;;;13.25;10.75;;;;;21.35;45.10;100484.94;5084604;27;45474;-74
2021/12/07 05:10:19;;;;;;;;;13.50;11.75;;;;;21.36;44.92;100488.47;5070035;27;45294;-73
2021/12/07 05:39:47;;;;;;;;;12.50;10.50;;;;;21.36;44.98;100497.28;5072773;27;45513;-73
2021/12/07 05:42:12;;;;;;;;;11.00;9.00;;;;;21.36;44.84;100491.97;5066724;27;45517;-75
2021/12/07 05:44:38;;;;;;;;;13.75;12.25;;;;;21.37;45.09;100490.19;5084021;27;45271;-75
2021/12/07 05:47:04;;;;;;;;;14.25;13.50;;;;;21.37;44.95;100496.38;5102349;27;45212;-74
2021/12/07 05:49:30;;;;;;;;;15.25;10.50;;;;;21.37;45.41;100496.38;5084403;27;45217;-75
2021/12/07 05:51:55;;;;;;;;;15.25;11.75;;;;;21.36;45.45;100494.63;5083222;27;56560;-79
2021/12/07 05:54:20;;;;;;;;;14.50;12.00;;;;;21.38;45.54;100498.13;5101978;27;57307;-75
2021/12/07 05:56:46;;;;;;;;;15.00;13.50;;;;;21.41;46.63;100502.44;5102156;27;45391;-72
2021/12/07 05:59:11;;;;;;;;;14.25;11.50;;;;;21.48;46.66;100503.06;5101955;27;45308;-72
2021/12/07 06:01:37;;;;;;;;;10.25;10.25;;;;;21.56;47.40;100511.59;5101768;27;45612;-73
2021/12/07 06:04:02;;;;;;;;;16.00;13.00;;;;;21.60;46.79;100508.72;5066685;27;45459;-73
2021/12/07 06:06:28;;;;;;;;;14.25;12.75;;;;;21.65;47.50;100514.75;5084958;27;45356;-76
2021/12/07 06:08:53;;;;;;;;;13.25;13.25;;;;;21.71;48.08;100510.94;5084182;27;64823;-75
2021/12/07 06:11:21;;;;;;;;;14.75;12.25;;;;;21.78;48.08;100509.78;5065749;27;61310;-74
2021/12/07 06:13:47;;;;;;;;;16.50;12.75;;;;;21.83;47.90;100499.84;5067202;27;45339;-74
2021/12/07 06:16:15;;;;;;;;;12.50;9.25;;;;;21.89;48.07;100498.72;5066606;27;45276;-78
2021/12/07 06:18:40;;;;;;;;;14.25;14.00;;;;;21.91;48.21;100500.41;5083723;27;45204;-76
2021/12/07 06:21:05;;;;;;;;;16.00;14.00;;;;;21.95;48.42;100493.16;5066272;27;45970;-78
2021/12/07 06:23:31;;;;;;;;;17.75;13.50;;;;;22.00;48.50;100475.22;5066592;27;45394;-73
2021/12/07 06:25:58;;;;;;;;;15.00;13.00;;;;;22.01;48.23;100467.19;5100776;27;60515;-75
2021/12/07 06:28:23;;;;;;;;;17.25;13.50;;;;;22.04;48.29;100460.00;5101497;27;45457;-76
2021/12/07 06:30:49;;;;;;;;;14.75;12.75;;;;;22.03;48.03;100464.47;5102368;27;54097;-72
2021/12/07 06:33:15;;;;;;;;;15.25;14.25;;;;;22.04;47.93;100460.00;5101000;27;45278;-72
2021/12/07 06:35:41;;;;;;;;;17.00;13.00;;;;;22.04;48.15;100458.22;5101534;27;45521;-74
2021/12/07 06:38:06;;;;;;;;;13.00;12.75;;;;;22.04;48.05;100449.38;5101399;27;45227;-71
2021/12/07 06:40:31;;;;;;;;;19.50;12.50;;;;;22.01;47.70;100437.97;5065350;27;61202;-72
2021/12/07 06:42:59;;;;;;;;;14.75;11.00;;;;;22.05;48.20;100449.31;5065519;27;53999;-73
2021/12/07 06:45:25;;;;;;;;;12.75;12.50;;;;;22.02;48.15;100450.31;5082803;27;45256;-73
2021/12/07 06:47:50;;;;;;;;;15.25;15.00;;;;;22.00;48.58;100452.19;5065999;27;45702;-73
2021/12/07 06:50:16;;;;;;;;;12.25;8.75;;;;;21.96;46.70;100447.91;5065485;27;61477;-72
2021/12/07 06:52:44;;;;;;;;;11.75;9.50;;;;;21.88;44.93;100450.03;5083233;27;45375;-75
2021/12/07 06:55:13;;;;;;;;;15.25;12.25;;;;;21.76;45.38;100439.91;5066126;27;45657;-73
2021/12/07 06:57:38;;;;;;;;;11.00;10.25;;;;;21.64;44.39;100437.78;5066016;27;45268;-72
2021/12/07 07:00:05;;;;;;;;;15.00;12.50;;;;;21.54;44.46;100428.44;5065356;27;57261;-71
2021/12/07 07:02:31;;;;;;;;;11.00;10.50;;;;;21.44;44.70;100422.66;5065973;27;46064;-74
2021/12/07 07:04:56;;;;;;;;;13.75;12.25;;;;;21.35;44.78;100428.31;5083091;27;45420;-75
2021/12/07 07:07:22;;;;;;;;;15.50;11.50;;;;;21.25;44.35;100418.97;5065468;27;64975;-71
2021/12/07 07:09:51;;;;;;;;;13.75;11.00;;;;;21.15;43.24;100414.03;5082705;27;45927;-71
2021/12/07 07:12:16;;;;;;;;;11.50;10.25;;;;;21.02;43.32;100410.13;5065497;27;45344;-73
2021/12/07 07:14:42;;;;;;;;;11.25;10.75;;;;;20.95;42.53;100406.00;5065882;27;45498;-71
2021/12/07 07:17:07;;;;;;;;;15.75;10.50;;;;;20.84;43.18;100411.69;5065090;27;62583;-72
2021/12/07 07:19:32;;;;;;;;;13.50;10.75;;;;;20.78;42.40;100401.34;5082468;27;46408;-72
2021/12/07 07:22:01;;;;;;;;;12.00;11.75;;;;;20.71;43.78;100402.50;5061750;28;58667;-72
2021/12/07 07:24:27;;;;;;;;;14.25;11.00;;;;;20.69;43.09;100407.00;5049693;27;45446;-72
2021/12/07 07:26:53;;;;;;;;;14.50;12.50;;;;;20.68;43.13;100396.47;5065409;27;45566;-72
2021/12/07 07:29:18;;;;;;;;;13.50;13.50;;;;;20.63;42.80;100390.44;5065184;27;56485;-73
2021/12/07 07:31:47;;;;;;;;;11.00;9.25;;;;;20.61;42.89;100377.25;5099575;27;70843;-73
2021/12/07 07:34:12;;;;;;;;;16.25;12.00;;;;;20.57;42.92;100365.88;5099584;27;45408;-73
2021/12/07 07:36:37;;;;;;;;;14.50;11.50;;;;;20.53;42.08;100363.41;5062431;27;45243;-72
2021/12/07 07:39:03;;;;;;;;;12.00;12.00;;;;;20.43;41.92;100367.31;5099791;27;66360;-71
2021/12/07 07:41:29;;;;;;;;;14.00;13.50;;;;;20.31;41.20;100361.53;5100259;27;45332;-72
2021/12/07 07:43:54;;;;;;;;;11.00;9.75;;;;;20.18;42.45;100354.09;5081906;27;55305;-72
2021/12/07 07:46:19;;;;;;;;;11.50;11.50;;;;;20.16;42.13;100350.66;5082175;27;45256;-72
2021/12/07 07:48:45;;;;;;;;;12.00;10.25;;;;;20.10;41.90;100345.56;5099754;27;66470;-72
2021/12/07 07:51:11;;;;;;;;;11.25;11.25;;;;;20.06;42.04;100347.44;5082200;27;45173;-72
2021/12/07 07:53:36;;;;;;;;;12.00;10.00;;;;;20.05;42.23;100340.41;5082580;27;45664;-72
2021/12/07 07:56:01;;;;;;;;;9.75;6.50;;;;;20.02;42.29;100348.47;5100355;27;45398;-72
2021/12/07 07:58:27;;;;;;;;;13.75;13.00;;;;;19.96;42.17;100343.38;5085567;27;47390;-72
2021/12/07 08:00:52;;;;;;;;;10.25;9.75;;;;;19.91;41.86;100348.88;5085637;27;45272;-72
2021/12/07 08:03:18;;;;;;;;;13.25;13.25;;;;;19.88;40.92;100340.16;5071885;27;49370;-72
2021/12/07 08:05:43;;;;;;;;;13.50;10.00;;;;;19.79;41.45;100333.38;5085695;27;45354;-71
2021/12/07 08:08:09;;;;;;;;;12.50;11.00;;;;;19.74;41.00;100325.63;5104089;27;46378;-72
2021/12/07 08:10:34;;;;;;;;;12.00;9.75;;;;;19.73;41.86;100325.69;5084818;27;62523;-72
2021/12/07 08:13:01;;;;;;;;;12.75;9.75;;;;;19.71;41.51;100320.41;5068543;27;45424;-72
2021/12/07 08:15:27;;;;;;;;;16.75;13.00;;;;;19.68;41.42;100315.25;5068711;27;45182;-72
2021/12/07 08:17:53;;;;;;;;;12.75;11.00;;;;;19.58;40.78;100319.13;5068686;27;46384;-72
2021/12/07 08:20:18;;;;;;;;;13.25;13.25;;;;;19.46;41.53;100317.75;5064918;27;45245;-72
2021/12/07 08:22:44;;;;;;;;;11.50;11.50;;;;;19.48;41.13;100313.25;5085661;27;45271;-72
2021/12/07 08:25:09;;;;;;;;;12.50;10.75;;;;;19.44;41.66;100314.25;5068281;27;45507;-72
2021/12/07 08:27:35;;;;;;;;;12.25;12.00;;;;;19.44;40.85;100305.47;5084869;27;46600;-72
2021/12/07 08:30:03;;;;;;;;;10.00;9.50;;;;;19.41;41.33;100292.34;5068505;27;45274;-72
2021/12/07 08:32:28;;;;;;;;;13.25;12.25;;;;;19.37;41.12;100298.66;5068391;27;45397;-73
2021/12/07 08:34:54;;;;;;;;;11.75;10.75;;;;;19.28;41.60;100289.22;5085068;27;45457;-73
2021/12/07 08:37:19;;;;;;;;;14.75;13.75;;;;;19.25;41.51;100293.78;5067440;27;55371;-71
2021/12/07 08:39:44;;;;;;;;;9.25;7.75;;;;;19.25;42.01;100299.06;5084250;27;63634;-72
2021/12/07 08:42:10;;;;;;;;;7.25;6.00;;;;;19.23;41.15;100291.19;5067632;27;45854;-71
2021/12/07 08:44:35;;;;;;;;;9.75;9.75;;;;;19.15;41.38;100293.22;5051459;27;45310;-71
2021/12/07 08:47:01;;;;;;;;;11.00;10.00;;;;;19.07;41.23;100293.47;5067928;27;48015;-71
2021/12/07 08:49:26;;;;;;;;;10.75;9.00;;;;;19.07;40.85;100288.19;5068094;27;45639;-72
2021/12/07 08:51:51;;;;;;;;;11.75;9.75;;;;;19.05;41.08;100284.72;5084236;27;59678;-70
2021/12/07 08:59:38;;;;;;;;;10.50;9.00;;;;;19.02;41.11;100289.22;5062763;28;69108;-72
2021/12/07 08:59:49;;;;;;;;;12.75;12.50;;;;;18.98;41.53;100264.69;5059706;27;45367;-72
2021/12/07 09:02:20;;;;;;;;;10.25;9.75;;;;;18.92;41.52;100257.81;5067679;27;45249;-73
2021/12/07 09:04:46;;;;;;;;;12.75;9.00;;;;;18.89;42.11;100249.13;5084648;27;45437;-73
2021/12/07 09:07:11;;;;;;;;;13.75;12.50;;;;;18.85;41.34;100232.50;5067425;27;45228;-72
2021/12/07 09:09:37;;;;;;;;;11.25;11.25;;;;;18.78;41.76;100208.97;5050097;27;45372;-72
2021/12/07 09:12:06;;;;;;;;;12.25;10.25;;;;;18.74;41.56;100210.81;5050466;27;45483;-72
2021/12/07 09:14:32;;;;;;;;;11.75;10.25;;;;;18.71;41.82;100197.72;5084308;27;45492;-72
2021/12/07 09:16:58;;;;;;;;;10.50;10.25;;;;;18.72;42.11;100199.44;5067243;27;48280;-72
2021/12/07 09:19:23;;;;;;;;;12.00;11.50;;;;;18.73;41.41;100208.22;5063796;28;45506;-72
2021/12/07 09:21:49;;;;;;;;;10.75;8.50;;;;;18.77;41.76;100204.59;5060708;27;45548;-72
2021/12/07 09:24:14;;;;;;;;;8.75;7.00;;;;;18.86;41.94;100197.22;5066928;27;45514;-72
2021/12/07 09:26:39;;;;;;;;;11.50;10.50;;;;;18.87;41.67;100177.78;5067018;27;45445;-72
2021/12/07 09:29:05;;;;;;;;;14.00;10.00;;;;;18.89;41.55;100185.66;5067232;27;45341;-72
2021/12/07 09:31:31;;;;;;;;;11.75;11.00;;;;;18.83;40.23;100172.63;5066927;27;45312;-73
2021/12/07 09:33:56;;;;;;;;;12.50;10.50;;;;;18.79;40.64;100165.75;5067182;27;45344;-72
2021/12/07 09:36:22;;;;;;;;;13.00;13.00;;;;;18.77;41.26;100178.16;5065247;28;47836;-72
2021/12/07 09:38:48;;;;;;;;;12.00;12.00;;;;;18.81;41.02;100182.41;5066151;27;66909;-72
2021/12/07 09:41:13;;;;;;;;;12.25;9.25;;;;;18.84;40.64;100185.78;5066158;27;62501;-72
2021/12/07 09:43:39;;;;;;;;;12.75;12.50;;;;;18.84;40.51;100169.94;5063331;27;45213;-72
2021/12/07 09:46:05;;;;;;;;;9.75;7.25;;;;;18.76;39.74;100173.75;5063452;28;48318;-72
2021/12/07 09:48:30;;;;;;;;;10.00;9.75;;;;;18.70;39.97;100185.41;5099887;27;45282;-73
2021/12/07 09:50:56;;;;;;;;;12.50;12.50;;;;;18.64;39.95;100169.72;5101758;27;49463;-72
2021/12/07 09:53:25;;;;;;;;;18.75;14.50;;;;;18.60;40.24;100150.47;5101859;27;45519;-72
2021/12/07 09:55:50;;;;;;;;;11.00;10.50;;;;;18.55;40.76;100155.03;5067058;27;45713;-72
2021/12/07 09:58:16;;;;;;;;;11.75;10.50;;;;;18.55;40.78;100165.59;5083282;27;45505;-73
2021/12/07 10:00:41;;;;;;;;;13.00;12.00;;;;;18.55;40.50;100170.88;5102009;27;45307;-72
2021/12/07 10:03:07;;;;;;;;;15.25;12.50;;;;;18.52;40.90;100163.06;5083280;27;45233;-72
2021/12/07 10:05:34;;;;;;;;;15.50;12.50;;;;;18.54;41.18;100166.50;5083386;27;47049;-72
2021/12/07 10:08:00;;;;;;;;;14.25;13.25;;;;;18.55;41.26;100170.88;5063475;28;45696;-72
2021/12/07 10:10:37;;;;;;;;;14.25;12.00;;;;;18.55;41.57;100164.72;5074997;27;45451;-72
2021/12/07 10:13:03;;;;;;;;;12.50;12.25;;;;;18.57;41.24;100154.97;5066039;27;45621;-72
2021/12/07 10:15:29;;;;;;;;;11.25;11.25;;;;;18.56;41.25;100143.53;5083181;27;46481;-73
2021/12/07 10:18:03;;;;;;;;;13.00;12.75;;;;;18.57;41.31;100126.75;5065767;27;64458;-73
2021/12/07 10:20:41;;;;;;;;;12.75;12.25;;;;;18.57;41.33;100129.41;5065876;27;45418;-73
2021/12/07 10:23:16;;;;;;;;;12.75;11.50;;;;;18.58;41.69;100123.19;5050698;27;45728;-73
2021/12/07 10:25:43;;;;;;;;;12.00;9.25;;;;;18.57;40.92;100108.25;5083054;27;48044;-73
2021/12/07 10:28:29;;;;;;;;;13.50;12.25;;;;;18.58;41.44;100090.63;5066483;27;45380;-72
2021/12/07 10:30:56;;;;;;;;;12.50;12.50;;;;;18.59;41.11;100084.41;5066271;27;45280;-73
2021/12/07 10:33:31;;;;;;;;;15.00;12.25;;;;;18.59;41.43;100082.66;5083073;27;45330;-73
2021/12/07 10:36:11;;;;;;;;;14.00;10.50;;;;;18.59;41.59;100077.38;5074789;27;47372;-73
2021/12/07 10:38:37;;;;;;;;;12.50;12.00;;;;;18.59;41.74;100058.88;5083077;27;45200;-73
2021/12/07 10:41:10;;;;;;;;;11.25;11.25;;;;;18.58;41.72;100049.19;5049502;27;45348;-72
2021/12/07 10:43:42;;;;;;;;;14.00;10.50;;;;;18.60;41.72;100043.88;5065790;27;45532;-72
2021/12/07 10:46:28;;;;;;;;;13.00;11.75;;;;;18.58;41.70;100049.19;5083157;27;45610;-72
2021/12/07 10:49:32;;;;;;;;;13.25;13.00;;;;;18.57;41.64;100036.03;5083567;27;45345;-73
2021/12/07 10:52:05;;;;;;;;;15.25;13.00;;;;;18.57;42.00;100026.34;5069847;27;45434;-73
2021/12/07 10:54:33;;;;;;;;;11.75;11.75;;;;;18.56;41.72;100008.75;5082431;27;45640;-75
2021/12/07 10:56:58;;;;;;;;;15.75;11.75;;;;;18.56;41.98;99997.31;5069531;28;45473;-74
2021/12/07 10:59:24;;;;;;;;;14.50;12.75;;;;;18.54;42.29;99984.16;5060922;27;45478;-73
2021/12/07 11:01:53;;;;;;;;;14.50;13.00;;;;;18.50;42.41;99976.38;5084694;27;45257;-72
2021/12/07 11:04:23;;;;;;;;;15.25;12.50;;;;;18.52;42.88;99964.00;5066226;27;45357;-75
2021/12/07 11:07:08;;;;;;;;;14.50;13.00;;;;;18.56;42.08;99963.84;5082643;27;45449;-72
2021/12/07 11:10:14;;;;;;;;;14.25;12.50;;;;;18.57;42.35;99946.19;5065531;27;45965;-72
2021/12/07 11:15:27;;;;;;;;;16.75;16.50;;;;;18.67;42.39;99928.25;5068034;27;45489;-72
2021/12/07 11:18:14;;;;;;;;;16.75;14.25;;;;;18.67;42.30;99915.03;5082614;27;46321;-73
2021/12/07 11:20:39;;;;;;;;;15.50;14.50;;;;;18.65;42.38;99904.53;5076945;27;45234;-72
2021/12/07 11:23:18;;;;;;;;;14.50;14.25;;;;;18.62;42.28;99891.41;5084092;27;45223;-73
2021/12/07 11:31:49;;;;;;;;;14.50;11.00;;;;;18.50;43.16;99846.91;5100202;27;45277;-71
2021/12/07 11:34:37;;;;;;;;;11.75;9.75;;;;;18.52;42.80;99848.59;5066251;27;45257;-74
2021/12/07 11:37:07;;;;;;;;;14.50;11.50;;;;;18.50;42.50;99841.63;5061424;28;45396;-72
2021/12/07 11:39:35;;;;;;;;;11.50;9.25;;;;;18.51;42.61;99832.81;5056188;27;45684;-73
2021/12/07 11:42:07;;;;;;;;;11.75;10.50;;;;;18.53;42.74;99815.97;5081535;27;45241;-71
2021/12/07 11:44:35;;;;;;;;;9.75;8.00;;;;;18.54;42.74;99811.53;5082808;27;45291;-70
2021/12/07 11:47:01;;;;;;;;;10.00;8.50;;;;;18.54;42.66;99799.19;5081959;27;45608;-70
2021/12/07 11:49:28;;;;;;;;;10.00;9.75;;;;;18.53;42.83;99794.84;5050768;27;47173;-70
2021/12/07 11:51:56;;;;;;;;;12.25;9.00;;;;;18.49;42.90;99793.22;5086227;27;45291;-68
2021/12/07 11:54:25;;;;;;;;;12.50;9.25;;;;;18.46;42.75;99774.84;5066719;27;45763;-70
2021/12/07 11:56:51;;;;;;;;;8.75;8.00;;;;;18.41;42.84;99776.78;5081825;27;45281;-70
2021/12/07 11:59:16;;;;;;;;;9.75;9.25;;;;;18.38;43.01;99768.13;5099963;27;51260;-70
2021/12/07 12:01:46;;;;;;;;;9.75;6.50;;;;;18.37;42.72;99759.34;5064912;27;45371;-70
2021/12/07 12:04:11;;;;;;;;;6.25;5.00;;;;;18.33;43.04;99737.50;5065039;27;45345;-70
2021/12/07 12:06:37;;;;;;;;;11.50;7.50;;;;;18.36;43.03;99732.06;5064737;27;45454;-69
2021/12/07 12:09:03;;;;;;;;;8.25;7.75;;;;;18.40;43.19;99721.38;5047940;27;48202;-70
2021/12/07 12:11:53;;;;;;;;;7.50;6.00;;;;;18.42;43.30;99709.84;5064895;27;45280;-70
2021/12/07 12:14:40;;;;;;;;;9.75;8.00;;;;;18.42;43.20;99708.97;5099973;27;45264;-71
2021/12/07 12:17:38;;;;;;;;;7.25;7.25;;;;;18.42;42.82;99707.22;5081585;27;45404;-70
2021/12/07 12:20:56;;;;;;;;;6.50;5.75;;;;;18.42;43.06;99694.00;5089578;27;47068;-69
2021/12/07 12:23:34;;;;;;;;;8.00;8.00;;;;;18.38;43.32;99665.97;5064793;28;45376;-68
2021/12/07 12:26:05;;;;;;;;;9.25;6.75;;;;;18.39;43.10;99675.59;5100413;27;45394;-69
2021/12/07 12:28:34;;;;;;;;;9.75;8.25;;;;;18.37;43.50;99664.25;5069916;27;45447;-69
2021/12/07 12:30:59;;;;;;;;;9.50;7.50;;;;;18.36;43.36;99665.19;5100235;27;45450;-70
2021/12/07 12:33:47;;;;;;;;;7.00;6.00;;;;;18.41;43.34;99643.84;5080288;27;69099;-70
2021/12/07 12:36:13;;;;;;;;;8.00;6.25;;;;;18.44;43.50;99620.81;5082200;27;45279;-71
2021/12/07 12:38:48;;;;;;;;;10.25;7.75;;;;;18.46;43.75;99618.97;5080199;27;66858;-71
2021/12/07 12:41:17;;;;;;;;;8.25;8.25;;;;;18.59;44.48;99606.09;5081944;27;46231;-70
2021/12/07 12:43:51;;;;;;;;;11.50;6.50;;;;;18.75;44.63;99595.78;5066306;27;45732;-71
2021/12/07 12:46:19;;;;;;;;;7.25;5.00;;;;;18.93;44.63;99569.41;5085254;27;45205;-71
2021/12/07 12:51:48;;;;;;;;;8.00;7.00;;;;;19.28;44.40;99548.44;5029046;27;46160;-71
2021/12/07 12:54:14;;;;;;;;;6.00;4.75;;;;;19.39;44.16;99550.63;5068271;27;45463;-71
2021/12/07 12:56:39;;;;;;;;;6.75;6.50;;;;;19.49;44.20;99531.59;5067771;27;45466;-71
2021/12/07 12:59:09;;;;;;;;;7.00;5.00;;;;;19.59;44.17;99508.25;5084870;27;45443;-71
2021/12/07 13:01:45;;;;;;;;;5.75;5.25;;;;;19.67;43.81;99523.75;5067688;27;46066;-70
2021/12/07 13:04:15;;;;;;;;;9.00;7.00;;;;;19.75;44.23;99526.91;5067521;27;45257;-70
2021/12/07 13:06:44;;;;;;;;;6.75;5.50;;;;;19.81;43.75;99510.75;5067984;27;45518;-71
2021/12/07 13:09:20;;;;;;;;;8.75;5.00;;;;;19.87;43.95;99515.72;5067440;27;45852;-70
2021/12/07 13:11:53;;;;;;;;;9.75;7.25;;;;;19.92;43.98;99512.84;5085569;27;46405;-71